createdAt,value
2023-01-19T00:01:56.507Z,22.02
2023-01-19T00:04:27.348Z,22.00
2023-01-19T00:06:57.998Z,21.98
2023-01-19T00:09:33.571Z,21.99
2023-01-19T00:12:04.475Z,21.96
2023-01-19T00:14:35.249Z,21.95
2023-01-19T00:17:06.315Z,21.90
2023-01-19T00:19:37.542Z,21.89
2023-01-19T00:22:08.336Z,21.87
2023-01-19T00:24:39.007Z,21.86
2023-01-19T00:27:09.699Z,21.85
2023-01-19T00:29:40.652Z,21.83
2023-01-19T00:32:11.405Z,21.81
2023-01-19T00:34:42.700Z,21.78
2023-01-19T00:37:13.508Z,21.76
2023-01-19T00:39:44.408Z,21.75
2023-01-19T00:42:33.753Z,21.73
2023-01-19T00:45:05.367Z,21.69
2023-01-19T00:47:36.286Z,21.68
2023-01-19T00:50:08.132Z,21.64
2023-01-19T00:52:38.976Z,21.61
2023-01-19T00:55:13.041Z,21.59
2023-01-19T00:57:46.595Z,21.60
2023-01-19T01:00:19.485Z,21.59
2023-01-19T01:02:52.028Z,21.56
2023-01-19T01:05:23.513Z,21.54
2023-01-19T01:07:54.273Z,21.54
2023-01-19T01:10:27.157Z,21.52
2023-01-19T01:12:58.229Z,21.51
2023-01-19T01:15:29.996Z,21.50
2023-01-19T01:18:00.700Z,21.46
2023-01-19T01:20:33.755Z,21.43
2023-01-19T01:23:04.787Z,21.42
2023-01-19T01:25:37.952Z,21.39
2023-01-19T01:28:09.961Z,21.39
2023-01-19T01:30:43.405Z,21.39
2023-01-19T01:33:14.249Z,21.38
2023-01-19T01:35:45.450Z,21.36
2023-01-19T01:38:16.165Z,21.34
2023-01-19T01:40:46.983Z,21.31
2023-01-19T01:43:20.566Z,21.29
2023-01-19T01:45:51.305Z,21.28
2023-01-19T01:48:27.067Z,21.28
2023-01-19T01:51:19.378Z,21.26
2023-01-19T01:53:54.689Z,21.25
2023-01-19T01:56:33.339Z,21.23
2023-01-19T01:59:07.742Z,21.20
2023-01-19T02:01:56.828Z,21.20
2023-01-19T02:04:27.967Z,21.18
2023-01-19T02:07:16.616Z,21.16
2023-01-19T02:10:05.024Z,21.14
2023-01-19T02:12:53.494Z,21.15
2023-01-19T02:15:24.432Z,21.14
2023-01-19T02:17:55.280Z,21.12
2023-01-19T02:20:28.909Z,21.10
2023-01-19T02:23:08.494Z,21.06
2023-01-19T02:25:40.687Z,21.04
2023-01-19T02:28:12.581Z,21.02
2023-01-19T02:30:43.916Z,21.03
2023-01-19T02:33:14.752Z,21.02
2023-01-19T02:35:47.478Z,21.02
2023-01-19T02:38:20.414Z,21.03
2023-01-19T02:40:51.872Z,21.01
2023-01-19T02:43:23.873Z,20.99
2023-01-19T02:45:55.247Z,20.98
2023-01-19T02:48:26.307Z,20.97
2023-01-19T02:51:04.478Z,20.96
2023-01-19T02:53:54.769Z,20.95
2023-01-19T02:56:56.308Z,20.94
2023-01-19T02:59:42.577Z,20.91
2023-01-19T03:02:27.842Z,20.90
2023-01-19T03:05:09.807Z,20.87
2023-01-19T03:07:52.264Z,20.88
2023-01-19T03:10:32.453Z,20.90
2023-01-19T03:13:12.132Z,20.98
2023-01-19T03:15:49.450Z,21.06
2023-01-19T03:18:26.143Z,21.16
2023-01-19T03:21:00.372Z,21.26
2023-01-19T03:23:35.032Z,21.35
2023-01-19T03:26:08.596Z,21.43
2023-01-19T03:28:43.756Z,21.50
2023-01-19T03:31:18.705Z,21.57
2023-01-19T03:33:52.938Z,21.63
2023-01-19T03:36:28.340Z,21.68
2023-01-19T03:39:02.783Z,21.72
2023-01-19T03:41:35.568Z,21.75
2023-01-19T03:44:08.823Z,21.76
2023-01-19T03:46:40.242Z,21.83
2023-01-19T03:49:11.307Z,21.86
2023-01-19T03:51:42.718Z,21.90
2023-01-19T03:54:14.055Z,21.96
2023-01-19T03:56:45.115Z,21.99
2023-01-19T03:59:17.584Z,22.01
2023-01-19T04:01:48.473Z,22.03
2023-01-19T04:04:19.477Z,22.08
2023-01-19T04:06:50.123Z,22.10
2023-01-19T04:09:21.654Z,22.12
2023-01-19T04:11:52.753Z,22.15
2023-01-19T04:14:23.555Z,22.17
2023-01-19T04:16:54.447Z,22.18
2023-01-19T04:19:25.610Z,22.21
2023-01-19T04:21:57.200Z,22.25
2023-01-19T04:24:28.213Z,22.28
2023-01-19T04:26:59.190Z,22.30
2023-01-19T04:29:30.032Z,22.33
2023-01-19T04:32:00.684Z,22.35
2023-01-19T04:34:31.825Z,22.37
2023-01-19T04:37:02.459Z,22.40
2023-01-19T04:39:33.120Z,22.43
2023-01-19T04:42:03.734Z,22.45
2023-01-19T04:44:34.459Z,22.49
2023-01-19T04:47:05.188Z,22.53
2023-01-19T04:49:37.809Z,22.54
2023-01-19T04:52:09.414Z,22.55
2023-01-19T04:54:40.272Z,22.55
2023-01-19T04:57:11.006Z,22.58
2023-01-19T04:59:41.887Z,22.58
2023-01-19T05:02:12.686Z,22.61
2023-01-19T05:04:43.511Z,22.63
2023-01-19T05:07:14.363Z,22.64
2023-01-19T05:09:45.339Z,22.67
2023-01-19T05:12:15.987Z,22.65
2023-01-19T05:14:46.787Z,22.68
2023-01-19T05:17:17.625Z,22.71
2023-01-19T05:19:49.085Z,22.74
2023-01-19T05:22:19.907Z,22.77
2023-01-19T05:24:50.554Z,22.80
2023-01-19T05:27:21.584Z,22.81
2023-01-19T05:29:52.443Z,22.83
2023-01-19T05:32:23.220Z,22.84
2023-01-19T05:34:53.920Z,22.86
2023-01-19T05:37:24.514Z,22.87
2023-01-19T05:39:55.660Z,22.88
2023-01-19T05:42:26.285Z,22.88
2023-01-19T05:44:56.904Z,22.89
2023-01-19T05:47:30.142Z,22.88
2023-01-19T05:50:01.123Z,22.88
2023-01-19T05:52:31.806Z,22.89
2023-01-19T05:55:02.602Z,22.88
2023-01-19T05:57:33.471Z,22.88
2023-01-19T06:00:04.608Z,22.88
2023-01-19T06:02:35.256Z,22.88
2023-01-19T06:05:06.819Z,22.87
2023-01-19T06:07:37.496Z,22.86
2023-01-19T06:10:10.479Z,22.83
2023-01-19T06:12:42.081Z,22.82
2023-01-19T06:15:14.504Z,22.82
2023-01-19T06:17:45.218Z,22.79
2023-01-19T06:20:16.682Z,22.77
2023-01-19T06:22:47.805Z,22.74
2023-01-19T06:25:18.699Z,22.70
2023-01-19T06:27:49.464Z,22.67
2023-01-19T06:30:21.496Z,22.64
2023-01-19T06:32:52.275Z,22.61
2023-01-19T06:35:22.981Z,22.58
2023-01-19T06:37:54.477Z,22.56
2023-01-19T06:40:25.166Z,22.53
2023-01-19T06:42:56.026Z,22.51
2023-01-19T06:45:26.892Z,22.48
2023-01-19T06:47:57.592Z,22.45
2023-01-19T06:50:28.587Z,22.41
2023-01-19T06:52:59.694Z,22.39
2023-01-19T06:55:31.033Z,22.38
2023-01-19T06:58:02.334Z,22.36
2023-01-19T07:00:33.493Z,22.35
2023-01-19T07:03:05.308Z,22.33
2023-01-19T07:05:37.569Z,22.31
2023-01-19T07:08:08.611Z,22.29
2023-01-19T07:11:25.800Z,22.26
2023-01-19T07:13:30.313Z,22.24
2023-01-19T07:16:01.159Z,22.21
2023-01-19T07:18:32.017Z,22.18
2023-01-19T07:21:02.976Z,22.16
2023-01-19T07:23:34.094Z,22.15
2023-01-19T07:26:05.168Z,22.12
2023-01-19T07:28:37.248Z,22.09
2023-01-19T07:31:09.935Z,22.04
2023-01-19T07:33:41.066Z,22.03
2023-01-19T07:36:13.141Z,22.01
2023-01-19T07:38:43.975Z,21.98
2023-01-19T07:41:14.711Z,21.96
2023-01-19T07:43:45.557Z,21.94
2023-01-19T07:46:16.454Z,21.93
2023-01-19T07:48:47.891Z,21.92
2023-01-19T07:51:19.253Z,21.88
2023-01-19T07:53:53.105Z,21.88
2023-01-19T07:56:24.871Z,21.90
2023-01-19T07:58:55.607Z,21.89
2023-01-19T08:01:26.414Z,21.87
2023-01-19T08:03:57.491Z,21.87
2023-01-19T08:06:33.856Z,21.85
2023-01-19T08:09:05.796Z,21.84
2023-01-19T08:11:36.870Z,21.84
2023-01-19T08:14:08.096Z,21.83
2023-01-19T08:16:41.547Z,21.82
2023-01-19T08:19:12.461Z,21.80
2023-01-19T08:21:43.195Z,21.79
2023-01-19T08:24:22.925Z,21.78
2023-01-19T08:26:52.107Z,21.76
2023-01-19T08:29:23.603Z,21.73
2023-01-19T08:31:55.744Z,21.72
2023-01-19T08:34:27.277Z,21.71
2023-01-19T08:36:58.384Z,21.69
2023-01-19T08:39:29.437Z,21.70
2023-01-19T08:42:00.842Z,21.69
2023-01-19T08:44:31.610Z,21.67
2023-01-19T08:47:02.361Z,21.64
2023-01-19T08:49:33.176Z,21.64
2023-01-19T08:52:04.323Z,21.63
2023-01-19T08:54:35.825Z,21.63
2023-01-19T08:57:06.839Z,21.66
2023-01-19T08:59:38.251Z,21.65
2023-01-19T09:02:11.267Z,21.61
2023-01-19T09:04:42.118Z,21.56
2023-01-19T09:07:12.895Z,21.50
2023-01-19T09:09:44.505Z,21.47
2023-01-19T09:12:16.821Z,21.43
2023-01-19T09:14:47.714Z,21.44
2023-01-19T09:17:18.972Z,21.48
2023-01-19T09:19:49.732Z,21.50
2023-01-19T09:22:20.863Z,21.51
2023-01-19T09:24:51.708Z,21.51
2023-01-19T09:27:22.391Z,21.48
2023-01-19T09:29:54.150Z,21.49
2023-01-19T09:32:25.430Z,21.50
2023-01-19T09:34:56.668Z,21.49
2023-01-19T09:37:27.421Z,21.49
2023-01-19T09:39:58.244Z,21.51
2023-01-19T09:42:38.281Z,21.52
2023-01-19T09:45:14.896Z,21.50
2023-01-19T09:47:47.013Z,21.49
2023-01-19T09:50:22.658Z,21.51
2023-01-19T09:53:01.545Z,21.53
2023-01-19T09:55:33.401Z,21.53
2023-01-19T09:58:05.013Z,21.54
2023-01-19T10:00:35.943Z,21.56
2023-01-19T10:03:16.615Z,21.56
2023-01-19T10:05:53.152Z,21.54
2023-01-19T10:08:32.320Z,21.54
2023-01-19T10:11:03.308Z,21.57
2023-01-19T10:13:40.354Z,21.54
2023-01-19T10:16:26.235Z,21.52
2023-01-19T10:18:58.769Z,21.52
2023-01-19T10:21:33.505Z,21.48
2023-01-19T10:24:09.596Z,21.50
2023-01-19T10:26:45.479Z,21.54
2023-01-19T10:29:22.270Z,21.53
2023-01-19T10:32:00.030Z,21.52
2023-01-19T10:34:30.929Z,21.54
2023-01-19T10:37:06.770Z,21.56
2023-01-19T10:39:38.864Z,21.58
2023-01-19T10:42:17.034Z,21.55
2023-01-19T10:44:48.499Z,21.55
2023-01-19T10:47:20.934Z,21.56
2023-01-19T10:49:52.284Z,21.54
2023-01-19T10:52:31.001Z,21.54
2023-01-19T10:55:03.404Z,21.52
2023-01-19T10:57:37.696Z,21.53
2023-01-19T11:00:30.370Z,21.52
2023-01-19T11:03:02.355Z,21.49
2023-01-19T11:05:35.384Z,21.49
2023-01-19T11:08:29.199Z,21.47
2023-01-19T11:11:04.521Z,21.45
2023-01-19T11:14:10.378Z,21.45
2023-01-19T11:16:42.301Z,21.46
2023-01-19T11:19:26.437Z,21.44
2023-01-19T11:22:12.295Z,21.43
2023-01-19T11:24:41.906Z,21.38
2023-01-19T11:27:17.639Z,21.34
2023-01-19T11:29:54.864Z,21.32
2023-01-19T11:32:28.427Z,21.28
2023-01-19T11:35:00.920Z,21.27
2023-01-19T11:37:34.658Z,21.30
2023-01-19T11:40:06.911Z,21.28
2023-01-19T11:42:38.940Z,21.24
2023-01-19T11:45:17.315Z,21.24
2023-01-19T11:47:52.520Z,21.22
2023-01-19T11:50:29.618Z,21.21
2023-01-19T11:53:07.171Z,21.20
2023-01-19T11:55:43.408Z,21.17
2023-01-19T11:58:16.758Z,21.15
2023-01-19T12:00:52.271Z,21.13
2023-01-19T12:03:30.675Z,21.13
2023-01-19T12:06:05.458Z,21.12
2023-01-19T12:08:40.501Z,21.13
2023-01-19T12:11:17.856Z,21.15
2023-01-19T12:13:50.859Z,21.17
2023-01-19T12:16:22.217Z,21.17
2023-01-19T12:18:57.682Z,21.18
2023-01-19T12:21:28.460Z,21.19
2023-01-19T12:24:13.489Z,21.18
2023-01-19T12:26:52.638Z,21.18
2023-01-19T12:29:25.987Z,21.18
2023-01-19T12:32:19.880Z,21.18
2023-01-19T12:34:53.709Z,21.18
2023-01-19T12:37:41.738Z,21.18
2023-01-19T12:40:26.301Z,21.15
2023-01-19T12:43:04.849Z,21.14
2023-01-19T12:45:39.752Z,21.16
2023-01-19T12:48:27.302Z,21.17
2023-01-19T12:50:58.480Z,21.15
2023-01-19T12:53:30.616Z,21.12
2023-01-19T12:56:10.094Z,21.13
2023-01-19T12:58:41.062Z,21.11
2023-01-19T13:01:21.847Z,21.08
2023-01-19T13:04:06.881Z,21.04
2023-01-19T13:07:11.049Z,21.02
2023-01-19T13:09:43.409Z,21.00
2023-01-19T13:12:29.046Z,21.00
2023-01-19T13:15:30.444Z,20.98
2023-01-19T13:18:01.873Z,20.94
2023-01-19T13:20:44.905Z,20.91
2023-01-19T13:23:22.933Z,20.89
2023-01-19T13:26:01.159Z,20.87
2023-01-19T13:28:37.154Z,20.86
2023-01-19T13:31:10.153Z,20.84
2023-01-19T13:33:51.873Z,20.82
2023-01-19T13:36:30.249Z,20.81
2023-01-19T13:39:04.481Z,20.81
2023-01-19T13:41:40.317Z,20.80
2023-01-19T13:44:15.006Z,20.77
2023-01-19T13:46:47.202Z,20.75
2023-01-19T13:49:22.251Z,20.75
2023-01-19T13:54:53.812Z,20.75
2023-01-19T13:57:29.918Z,20.74
2023-01-19T14:00:20.111Z,20.75
2023-01-19T14:03:21.549Z,20.73
2023-01-19T14:05:55.630Z,20.70
2023-01-19T14:08:26.814Z,20.69
2023-01-19T14:11:04.659Z,20.68
2023-01-19T14:13:40.283Z,20.66
2023-01-19T14:16:16.656Z,20.66
2023-01-19T14:18:47.415Z,20.66
2023-01-19T14:21:18.718Z,20.64
2023-01-19T14:23:52.076Z,20.62
2023-01-19T14:26:46.266Z,20.62
2023-01-19T14:29:25.849Z,20.62
2023-01-19T14:32:12.811Z,20.62
2023-01-19T14:34:44.957Z,20.63
2023-01-19T14:37:28.077Z,20.61
2023-01-19T14:40:04.784Z,20.58
2023-01-19T14:42:39.523Z,20.55
2023-01-19T14:45:21.275Z,20.54
2023-01-19T14:47:58.414Z,20.52
2023-01-19T14:50:31.716Z,20.50
2023-01-19T14:53:05.165Z,20.49
2023-01-19T14:55:40.728Z,20.46
2023-01-19T14:58:22.123Z,20.44
2023-01-19T15:00:55.817Z,20.40
2023-01-19T15:03:35.052Z,20.38
2023-01-19T15:06:17.035Z,20.33
2023-01-19T15:08:50.354Z,20.30
2023-01-19T15:11:25.891Z,20.29
2023-01-19T15:13:57.151Z,20.27
2023-01-19T15:16:30.227Z,20.26
2023-01-19T15:19:01.263Z,20.24
2023-01-19T15:21:32.576Z,20.21
2023-01-19T15:24:03.287Z,20.17
2023-01-19T15:26:34.156Z,20.14
2023-01-19T15:29:11.130Z,20.11
2023-01-19T15:31:41.893Z,20.08
2023-01-19T15:34:14.844Z,20.08
2023-01-19T15:36:45.744Z,20.07
2023-01-19T15:39:16.478Z,20.05
2023-01-19T15:41:47.293Z,20.04
2023-01-19T15:44:18.043Z,20.03
2023-01-19T15:46:48.981Z,20.04
2023-01-19T15:49:21.723Z,20.04
2023-01-19T15:51:52.837Z,20.01
2023-01-19T15:54:23.793Z,20.01
2023-01-19T15:56:54.773Z,20.01
2023-01-19T15:59:26.016Z,20.02
2023-01-19T16:01:57.023Z,19.98
2023-01-19T16:04:27.925Z,19.98
2023-01-19T16:06:58.653Z,19.97
2023-01-19T16:09:29.588Z,19.97
2023-01-19T16:12:00.566Z,19.97
2023-01-19T16:14:31.791Z,19.97
2023-01-19T16:17:02.576Z,19.97
2023-01-19T16:19:33.430Z,19.95
2023-01-19T16:22:05.811Z,19.91
2023-01-19T16:24:36.669Z,19.92
2023-01-19T16:27:08.990Z,19.96
2023-01-19T16:29:40.048Z,19.96
2023-01-19T16:32:10.934Z,20.03
2023-01-19T16:34:42.244Z,20.10
2023-01-19T16:37:13.493Z,20.17
2023-01-19T16:39:45.574Z,20.23
2023-01-19T16:42:16.681Z,20.28
2023-01-19T16:44:47.489Z,20.34
2023-01-19T16:47:18.258Z,20.39
2023-01-19T16:49:49.169Z,20.44
2023-01-19T16:52:20.203Z,20.48
2023-01-19T16:54:54.741Z,20.53
2023-01-19T16:57:25.582Z,20.56
2023-01-19T16:59:56.642Z,20.62
2023-01-19T17:02:27.989Z,20.65
2023-01-19T17:05:00.756Z,20.69
2023-01-19T17:07:31.673Z,20.72
2023-01-19T17:10:02.605Z,20.75
2023-01-19T17:12:33.623Z,20.80
2023-01-19T17:15:05.139Z,20.85
2023-01-19T17:17:36.809Z,20.92
2023-01-19T17:20:10.136Z,21.00
2023-01-19T17:22:41.349Z,21.06
2023-01-19T17:25:12.462Z,21.09
2023-01-19T17:27:43.360Z,21.10
2023-01-19T17:30:15.931Z,21.11
2023-01-19T17:32:46.834Z,21.11
2023-01-19T17:35:17.739Z,21.11
2023-01-19T17:37:48.684Z,21.12
2023-01-19T17:40:20.542Z,21.15
2023-01-19T17:42:51.655Z,21.19
2023-01-19T17:45:22.728Z,21.25
2023-01-19T17:47:53.943Z,21.29
2023-01-19T17:50:25.201Z,21.34
2023-01-19T17:52:56.217Z,21.38
2023-01-19T17:55:27.318Z,21.42
2023-01-19T17:58:00.342Z,21.46
2023-01-19T18:00:31.694Z,21.49
2023-01-19T18:03:02.883Z,21.52
2023-01-19T18:05:33.818Z,21.56
2023-01-19T18:08:05.171Z,21.61
2023-01-19T18:10:36.007Z,21.65
2023-01-19T18:13:07.294Z,21.69
2023-01-19T18:15:38.460Z,21.71
2023-01-19T18:18:09.457Z,21.75
2023-01-19T18:20:40.872Z,21.78
2023-01-19T18:23:11.656Z,21.82
2023-01-19T18:25:43.329Z,21.85
2023-01-19T18:28:14.614Z,21.87
2023-01-19T18:30:45.807Z,21.90
2023-01-19T18:33:16.866Z,21.93
2023-01-19T18:35:48.253Z,21.95
2023-01-19T18:38:19.378Z,21.97
2023-01-19T18:40:50.365Z,22.01
2023-01-19T18:43:21.473Z,22.05
2023-01-19T18:45:52.380Z,22.08
2023-01-19T18:48:23.363Z,22.10
2023-01-19T18:50:54.789Z,22.15
2023-01-19T18:53:26.291Z,22.16
2023-01-19T18:55:59.149Z,22.18
2023-01-19T18:58:31.768Z,22.21
2023-01-19T19:01:03.580Z,22.25
2023-01-19T19:03:34.407Z,22.28
2023-01-19T19:06:06.748Z,22.32
2023-01-19T19:08:37.899Z,22.34
2023-01-19T19:11:14.026Z,22.36
2023-01-19T19:13:45.142Z,22.37
2023-01-19T19:16:16.671Z,22.38
2023-01-19T19:18:50.059Z,22.39
2023-01-19T19:21:22.685Z,22.39
2023-01-19T19:23:55.578Z,22.39
2023-01-19T19:26:28.158Z,22.40
2023-01-19T19:28:59.650Z,22.40
2023-01-19T19:31:30.827Z,22.43
2023-01-19T19:34:02.369Z,22.46
2023-01-19T19:36:33.655Z,22.53
2023-01-19T19:39:04.792Z,22.57
2023-01-19T19:41:38.464Z,22.59
2023-01-19T19:44:07.755Z,22.62
2023-01-19T19:46:38.814Z,22.63
2023-01-19T19:49:09.689Z,22.67
2023-01-19T19:51:40.571Z,22.70
2023-01-19T19:54:11.775Z,22.72
2023-01-19T19:56:42.719Z,22.75
2023-01-19T19:59:13.740Z,22.78
2023-01-19T20:01:45.429Z,22.79
2023-01-19T20:04:19.992Z,22.81
2023-01-19T20:06:51.715Z,22.83
2023-01-19T20:09:22.669Z,22.84
2023-01-19T20:11:53.802Z,22.86
2023-01-19T20:14:25.266Z,22.88
2023-01-19T20:16:56.112Z,22.90
2023-01-19T20:19:27.328Z,22.90
2023-01-19T20:21:58.502Z,22.91
2023-01-19T20:24:29.547Z,22.92
2023-01-19T20:27:00.478Z,22.94
2023-01-19T20:29:31.733Z,22.98
2023-01-19T20:32:02.557Z,23.00
2023-01-19T20:34:35.736Z,23.03
2023-01-19T20:37:06.662Z,23.04
2023-01-19T20:39:37.491Z,23.06
2023-01-19T20:42:11.379Z,23.07
2023-01-19T20:44:43.584Z,23.08
2023-01-19T20:47:14.464Z,23.11
2023-01-19T20:49:45.442Z,23.12
2023-01-19T20:52:16.376Z,23.15
2023-01-19T20:54:47.590Z,23.17
2023-01-19T20:57:18.453Z,23.18
2023-01-19T20:59:49.816Z,23.19
2023-01-19T21:02:20.897Z,23.21
2023-01-19T21:04:53.340Z,23.21
2023-01-19T21:07:24.153Z,23.23
2023-01-19T21:09:55.394Z,23.28
2023-01-19T21:12:26.252Z,23.32
2023-01-19T21:14:57.268Z,23.33
2023-01-19T21:17:28.576Z,23.35
2023-01-19T21:19:59.292Z,23.35
2023-01-19T21:22:30.231Z,23.32
2023-01-19T21:25:00.980Z,23.27
2023-01-19T21:27:31.762Z,23.25
2023-01-19T21:30:02.742Z,23.23
2023-01-19T21:32:33.445Z,23.21
2023-01-19T21:35:04.383Z,23.20
2023-01-19T21:37:35.144Z,23.20
2023-01-19T21:40:07.432Z,23.19
2023-01-19T21:42:38.117Z,23.19
2023-01-19T21:45:10.739Z,23.18
2023-01-19T21:47:43.293Z,23.16
2023-01-19T21:50:14.522Z,23.16
2023-01-19T21:52:45.467Z,23.15
2023-01-19T21:55:16.343Z,23.13
2023-01-19T21:57:47.108Z,23.11
2023-01-19T22:00:19.503Z,23.09
2023-01-19T22:03:03.188Z,23.07
2023-01-19T22:05:37.203Z,23.05
2023-01-19T22:08:08.694Z,23.03
2023-01-19T22:10:39.975Z,23.01
2023-01-19T22:13:10.766Z,22.98
2023-01-19T22:15:41.505Z,22.96
2023-01-19T22:18:13.136Z,22.94
2023-01-19T22:20:43.774Z,22.91
2023-01-19T22:23:14.637Z,22.90
2023-01-19T22:25:45.325Z,22.86
2023-01-19T22:28:15.966Z,22.84
2023-01-19T22:30:46.862Z,22.80
2023-01-19T22:33:17.691Z,22.78
2023-01-19T22:35:48.430Z,22.72
2023-01-19T22:38:19.248Z,22.68
2023-01-19T22:40:49.878Z,22.65
2023-01-19T22:43:20.530Z,22.61
2023-01-19T22:45:51.475Z,22.57
2023-01-19T22:48:22.364Z,22.54
2023-01-19T22:50:58.455Z,22.50
2023-01-19T22:53:29.238Z,22.45
2023-01-19T22:56:01.209Z,22.42
2023-01-19T22:58:31.864Z,22.41
2023-01-19T23:01:09.342Z,22.38
2023-01-19T23:03:40.927Z,22.35
2023-01-19T23:06:14.447Z,22.33
2023-01-19T23:08:45.709Z,22.30
2023-01-19T23:11:18.132Z,22.26
2023-01-19T23:13:50.172Z,22.23
2023-01-19T23:16:21.570Z,22.21
2023-01-19T23:18:55.629Z,22.18
2023-01-19T23:21:28.123Z,22.13
2023-01-19T23:24:01.306Z,22.09
2023-01-19T23:26:38.064Z,22.04
2023-01-19T23:29:12.471Z,22.03
2023-01-19T23:31:47.099Z,22.01
2023-01-19T23:34:18.385Z,21.99
2023-01-19T23:36:49.115Z,21.96
2023-01-19T23:39:21.661Z,21.91
2023-01-19T23:41:52.749Z,21.89
2023-01-19T23:44:23.785Z,21.87
2023-01-19T23:46:54.623Z,21.85
2023-01-19T23:49:25.669Z,21.81
2023-01-19T23:51:56.311Z,21.78
2023-01-19T23:54:27.542Z,21.75
2023-01-19T23:56:58.197Z,21.74
2023-01-19T23:59:29.031Z,21.73
